Time;durP1;ratioP1;P1;durP2;ratioP2;P2;SDS_P1;SDS_P2;PMS_P1;PMS_P2;Temp;Humidity;BMP_temperature;BMP_pressure;BME280_temperature;BME280_humidity;BME280_pressure;Samples;Min_cycle;Max_cycle;Signal;HPM_P1;HPM_P2
2024/02/14 00:02:12;;;;;;;1.48;0.95;;;7.60;99.90;;;;;;4973820;28;20410;-75
2024/02/14 00:04:39;;;;;;;2.55;0.93;;;7.60;99.90;;;;;;4947421;28;20047;-76
2024/02/14 00:07:04;;;;;;;2.17;0.98;;;7.60;99.90;;;;;;4972220;28;20501;-76
2024/02/14 00:09:30;;;;;;;1.52;1.02;;;7.60;99.90;;;;;;4957303;28;20081;-76
2024/02/14 00:11:56;;;;;;;1.33;1.08;;;7.60;99.90;;;;;;4968834;28;20117;-76
2024/02/14 00:14:22;;;;;;;1.55;0.98;;;7.60;99.90;;;;;;4964545;28;20038;-75
2024/02/14 00:16:48;;;;;;;1.58;1.48;;;7.60;99.90;;;;;;4969266;28;20045;-76
2024/02/14 00:19:13;;;;;;;1.33;1.00;;;7.60;99.90;;;;;;4970963;28;20382;-75
2024/02/14 00:21:39;;;;;;;1.98;0.90;;;7.60;99.90;;;;;;4947719;28;20061;-74
2024/02/14 00:24:05;;;;;;;1.45;0.93;;;7.70;99.90;;;;;;4957057;28;20059;-76
2024/02/14 00:26:31;;;;;;;1.00;0.90;;;7.70;99.90;;;;;;4943904;28;20035;-75
2024/02/14 00:28:57;;;;;;;0.65;0.65;;;7.70;99.90;;;;;;4966864;28;20042;-78
2024/02/14 00:31:23;;;;;;;1.13;0.75;;;7.70;99.90;;;;;;4964438;28;20042;-75
2024/02/14 00:33:49;;;;;;;0.68;0.40;;;7.70;99.90;;;;;;4970327;28;20066;-75
2024/02/14 00:36:14;;;;;;;1.80;1.20;;;7.70;99.90;;;;;;4956711;28;20359;-75
2024/02/14 00:38:40;;;;;;;1.00;0.77;;;7.80;99.90;;;;;;4971955;28;20061;-75
2024/02/14 00:41:06;;;;;;;1.27;0.80;;;7.80;99.90;;;;;;4962592;28;20064;-74
2024/02/14 00:43:32;;;;;;;0.55;0.43;;;7.80;99.90;;;;;;4957708;28;20046;-75
2024/02/14 00:45:58;;;;;;;1.00;0.70;;;7.80;99.90;;;;;;4957471;28;20039;-74
2024/02/14 00:48:24;;;;;;;1.60;0.98;;;7.90;99.90;;;;;;4968337;28;20665;-75
2024/02/14 00:50:49;;;;;;;0.63;0.50;;;7.80;99.90;;;;;;4961666;28;20125;-76
2024/02/14 00:53:15;;;;;;;0.85;0.73;;;7.90;99.90;;;;;;4966262;28;20109;-74
2024/02/14 00:55:41;;;;;;;0.85;0.43;;;7.80;99.90;;;;;;4947306;28;20078;-74
2024/02/14 00:58:06;;;;;;;1.35;0.90;;;7.90;99.90;;;;;;4968584;28;20454;-74
2024/02/14 01:00:32;;;;;;;1.30;0.70;;;7.90;99.90;;;;;;4965963;28;20045;-74
2024/02/14 01:02:58;;;;;;;1.65;0.90;;;7.90;99.90;;;;;;4953329;28;20042;-74
2024/02/14 01:05:24;;;;;;;1.05;0.70;;;8.00;99.90;;;;;;4947378;28;20074;-75
2024/02/14 01:07:50;;;;;;;0.77;0.75;;;8.00;99.90;;;;;;4972385;28;20038;-75
2024/02/14 01:10:18;;;;;;;1.17;0.80;;;7.90;99.90;;;;;;4970192;28;20150;-75
2024/02/14 01:12:44;;;;;;;1.05;0.90;;;8.00;99.90;;;;;;4973347;28;20073;-75
2024/02/14 01:15:10;;;;;;;1.38;0.50;;;8.00;99.90;;;;;;4949912;28;20079;-74
2024/02/14 01:17:36;;;;;;;0.68;0.63;;;8.00;99.90;;;;;;4962823;28;20051;-74
2024/02/14 01:20:03;;;;;;;0.85;0.57;;;8.00;99.90;;;;;;4963264;28;20043;-74
2024/02/14 01:22:29;;;;;;;1.38;0.73;;;8.10;99.90;;;;;;4953103;28;20039;-75
2024/02/14 01:24:54;;;;;;;0.98;0.50;;;8.10;99.90;;;;;;4964410;28;20051;-75
2024/02/14 01:27:22;;;;;;;0.60;0.50;;;8.10;99.90;;;;;;4962945;28;20047;-74
2024/02/14 01:29:48;;;;;;;1.25;0.90;;;8.20;99.90;;;;;;4965925;28;20102;-75
2024/02/14 01:32:14;;;;;;;1.23;0.45;;;8.10;99.90;;;;;;4966574;28;20038;-75
2024/02/14 01:34:42;;;;;;;1.17;0.60;;;8.20;99.90;;;;;;4965191;28;20130;-74
2024/02/14 01:37:09;;;;;;;0.38;0.35;;;8.20;99.90;;;;;;4969743;28;20065;-75
2024/02/14 01:39:35;;;;;;;0.90;0.40;;;8.20;99.90;;;;;;4966346;28;20050;-74
2024/02/14 01:42:06;;;;;;;0.80;0.50;;;8.20;99.90;;;;;;4969167;28;20030;-74
2024/02/14 01:44:33;;;;;;;1.75;0.50;;;8.20;99.90;;;;;;4965709;28;20046;-74
2024/02/14 01:46:59;;;;;;;1.05;0.70;;;8.30;99.90;;;;;;4973395;28;20124;-73
2024/02/14 01:49:28;;;;;;;0.73;0.65;;;8.30;99.90;;;;;;4949888;28;20075;-73
2024/02/14 01:51:57;;;;;;;1.42;0.57;;;8.30;99.90;;;;;;4972226;28;20039;-73
2024/02/14 01:54:24;;;;;;;0.50;0.30;;;8.30;99.90;;;;;;4963361;28;20047;-74
2024/02/14 01:56:50;;;;;;;0.60;0.38;;;8.40;99.90;;;;;;4970897;28;20054;-74
2024/02/14 01:59:16;;;;;;;0.40;0.40;;;8.30;99.90;;;;;;4973107;28;20382;-73
2024/02/14 02:01:42;;;;;;;0.57;0.40;;;8.40;99.90;;;;;;4971745;28;20455;-72
2024/02/14 02:04:08;;;;;;;0.70;0.50;;;8.50;99.90;;;;;;4972811;28;20038;-73
2024/02/14 02:06:34;;;;;;;0.65;0.30;;;8.50;99.90;;;;;;4970235;28;20575;-73
2024/02/14 02:09:00;;;;;;;0.63;0.50;;;8.50;99.90;;;;;;4947297;28;20046;-72
2024/02/14 02:11:26;;;;;;;0.47;0.30;;;8.50;99.90;;;;;;4969057;28;20142;-72
2024/02/14 02:13:52;;;;;;;0.25;0.20;;;8.50;99.90;;;;;;4964686;28;20487;-73
2024/02/14 02:16:19;;;;;;;0.50;0.38;;;8.50;99.90;;;;;;4965810;28;20118;-72
2024/02/14 02:18:45;;;;;;;0.47;0.38;;;8.60;99.90;;;;;;4967908;28;20133;-73
2024/02/14 02:21:12;;;;;;;0.60;0.30;;;8.60;99.90;;;;;;4968547;28;20501;-73
2024/02/14 02:23:41;;;;;;;0.50;0.40;;;8.60;99.90;;;;;;4947468;28;20530;-73
2024/02/14 02:26:07;;;;;;;3.90;0.60;;;8.60;99.90;;;;;;4976135;28;20047;-73
2024/02/14 02:28:33;;;;;;;0.43;0.28;;;8.60;99.90;;;;;;4971445;28;20042;-73
2024/02/14 02:30:59;;;;;;;0.30;0.28;;;8.60;99.90;;;;;;4965842;28;20356;-73
2024/02/14 02:33:26;;;;;;;0.75;0.57;;;8.70;99.90;;;;;;4980539;28;20038;-73
2024/02/14 02:35:51;;;;;;;0.63;0.55;;;8.70;99.90;;;;;;4967287;28;20057;-73
2024/02/14 02:38:17;;;;;;;0.35;0.25;;;8.70;99.90;;;;;;4973504;28;20691;-73
2024/02/14 02:40:43;;;;;;;1.08;0.60;;;8.70;99.90;;;;;;4972430;28;20046;-73
2024/02/14 02:43:10;;;;;;;0.40;0.40;;;8.70;99.90;;;;;;4973238;28;20062;-73
2024/02/14 02:45:36;;;;;;;0.43;0.25;;;8.70;99.90;;;;;;4968033;28;20050;-73
2024/02/14 02:48:02;;;;;;;0.60;0.45;;;8.80;99.90;;;;;;4968501;28;20049;-74
2024/02/14 02:50:28;;;;;;;0.45;0.30;;;8.80;99.90;;;;;;4964684;28;20061;-74
2024/02/14 02:52:54;;;;;;;0.47;0.38;;;8.80;99.90;;;;;;4972239;28;20498;-74
2024/02/14 02:55:20;;;;;;;0.47;0.30;;;8.80;99.90;;;;;;4946208;28;20049;-73
2024/02/14 02:57:46;;;;;;;0.70;0.45;;;8.80;99.90;;;;;;4968486;28;20038;-74
2024/02/14 03:00:12;;;;;;;0.35;0.30;;;8.80;99.90;;;;;;4949028;28;20482;-73
2024/02/14 03:02:44;;;;;;;0.73;0.30;;;8.80;99.90;;;;;;4965773;28;20041;-74
2024/02/14 03:05:17;;;;;;;0.52;0.35;;;8.90;99.90;;;;;;4965105;28;20092;-74
2024/02/14 03:07:45;;;;;;;2.35;0.40;;;8.90;99.90;;;;;;4970781;28;20129;-74
2024/02/14 03:10:13;;;;;;;1.17;0.60;;;8.90;99.90;;;;;;4965385;28;20074;-75
2024/02/14 03:12:39;;;;;;;0.38;0.38;;;8.90;99.90;;;;;;4967794;28;20395;-74
2024/02/14 03:15:05;;;;;;;0.68;0.52;;;9.00;99.90;;;;;;4967815;28;20049;-74
2024/02/14 03:17:31;;;;;;;0.25;0.25;;;9.00;99.90;;;;;;4963056;28;20049;-74
2024/02/14 03:19:57;;;;;;;0.65;0.43;;;9.00;99.90;;;;;;4970603;28;20197;-73
2024/02/14 03:22:23;;;;;;;0.40;0.30;;;9.10;99.90;;;;;;4963810;28;20654;-74
2024/02/14 03:24:49;;;;;;;0.32;0.30;;;9.10;99.90;;;;;;4969229;28;21058;-74
2024/02/14 03:27:14;;;;;;;0.40;0.30;;;9.10;99.90;;;;;;4968816;28;20503;-74
2024/02/14 03:29:40;;;;;;;0.38;0.30;;;9.10;99.90;;;;;;4969682;28;20050;-74
2024/02/14 03:32:08;;;;;;;0.95;0.45;;;9.20;99.90;;;;;;4964162;28;20045;-75
2024/02/14 03:34:35;;;;;;;0.10;0.10;;;9.20;99.90;;;;;;4974637;28;20049;-74
2024/02/14 03:37:02;;;;;;;0.30;0.20;;;9.20;99.90;;;;;;4968875;28;20056;-74
2024/02/14 03:39:31;;;;;;;0.30;0.30;;;9.20;99.90;;;;;;4956281;28;20057;-74
2024/02/14 03:41:57;;;;;;;0.30;0.30;;;9.30;99.90;;;;;;4945952;28;20043;-75
2024/02/14 03:44:23;;;;;;;0.70;0.57;;;9.30;99.90;;;;;;4950602;28;20038;-74
2024/02/14 03:46:49;;;;;;;1.00;0.35;;;9.40;99.90;;;;;;4944902;28;20058;-74
2024/02/14 03:49:15;;;;;;;0.60;0.35;;;9.40;99.90;;;;;;4951309;28;20096;-74
2024/02/14 03:51:41;;;;;;;0.55;0.32;;;9.40;99.90;;;;;;4946589;28;20031;-75
2024/02/14 03:54:06;;;;;;;0.40;0.30;;;9.50;99.90;;;;;;4945142;28;20443;-75
2024/02/14 03:56:35;;;;;;;1.00;0.50;;;9.50;99.90;;;;;;4960036;28;20039;-74
2024/02/14 03:59:02;;;;;;;0.30;0.30;;;9.60;99.90;;;;;;4956829;28;20528;-75
2024/02/14 04:01:29;;;;;;;0.95;0.47;;;9.60;99.90;;;;;;4937369;28;20045;-75
2024/02/14 04:03:55;;;;;;;0.40;0.40;;;9.60;99.90;;;;;;4939497;28;20125;-75
2024/02/14 04:06:20;;;;;;;0.65;0.30;;;9.60;99.90;;;;;;4969130;28;20050;-74
2024/02/14 04:08:46;;;;;;;0.80;0.68;;;9.70;99.90;;;;;;4940504;28;20039;-75
2024/02/14 04:11:13;;;;;;;0.77;0.52;;;9.70;99.90;;;;;;4953156;28;20043;-74
2024/02/14 04:13:39;;;;;;;0.85;0.40;;;9.70;99.90;;;;;;4937286;28;20039;-75
2024/02/14 04:16:05;;;;;;;0.50;0.40;;;9.80;99.90;;;;;;4937445;28;20097;-74
2024/02/14 04:18:30;;;;;;;0.65;0.50;;;9.80;99.90;;;;;;4952746;28;20053;-74
2024/02/14 04:20:56;;;;;;;1.42;0.60;;;9.90;99.90;;;;;;4950445;28;20054;-75
2024/02/14 04:23:22;;;;;;;0.70;0.45;;;9.90;99.90;;;;;;4947656;28;20043;-75
2024/02/14 04:25:48;;;;;;;0.85;0.73;;;9.80;99.90;;;;;;4946910;28;20077;-75
2024/02/14 04:28:14;;;;;;;0.68;0.50;;;9.90;99.90;;;;;;4949573;28;20097;-74
2024/02/14 04:30:41;;;;;;;0.65;0.47;;;9.90;99.90;;;;;;4945050;28;20046;-75
2024/02/14 04:33:08;;;;;;;0.75;0.52;;;10.00;99.90;;;;;;4954183;28;20039;-75
2024/02/14 04:35:33;;;;;;;0.90;0.73;;;10.00;99.90;;;;;;4952383;28;20046;-75
2024/02/14 04:37:59;;;;;;;0.50;0.40;;;10.00;99.90;;;;;;4958969;28;20176;-74
2024/02/14 04:40:25;;;;;;;0.93;0.70;;;10.00;99.90;;;;;;4962682;28;20058;-75
2024/02/14 04:42:51;;;;;;;1.05;0.80;;;10.00;99.90;;;;;;4975432;28;20061;-74
2024/02/14 04:45:16;;;;;;;1.25;0.65;;;10.10;99.90;;;;;;4965015;28;20128;-73
2024/02/14 04:47:42;;;;;;;0.73;0.32;;;10.10;99.90;;;;;;4972500;28;20628;-73
2024/02/14 04:50:08;;;;;;;0.90;0.60;;;10.10;99.90;;;;;;4966891;28;20030;-74
2024/02/14 04:52:34;;;;;;;0.90;0.60;;;10.10;99.90;;;;;;4969772;28;20113;-74
2024/02/14 04:55:00;;;;;;;1.25;0.65;;;10.10;99.90;;;;;;4961667;28;20085;-74
2024/02/14 04:57:25;;;;;;;0.68;0.47;;;10.10;99.90;;;;;;4966763;28;20388;-75
2024/02/14 04:59:51;;;;;;;0.88;0.55;;;10.10;99.90;;;;;;4966767;28;20463;-74
2024/02/14 05:02:17;;;;;;;1.13;0.73;;;10.20;99.90;;;;;;4971750;28;20046;-75
2024/02/14 05:04:44;;;;;;;1.15;0.95;;;10.10;99.90;;;;;;4950913;28;20047;-76
2024/02/14 05:07:10;;;;;;;1.25;0.60;;;10.20;99.90;;;;;;4968653;28;20057;-76
2024/02/14 05:09:35;;;;;;;1.23;0.57;;;10.10;99.90;;;;;;4965976;28;20042;-77
2024/02/14 05:12:03;;;;;;;1.10;0.80;;;10.20;99.90;;;;;;4969239;28;20057;-76
2024/02/14 05:14:32;;;;;;;1.67;0.88;;;10.20;99.90;;;;;;4967452;28;20053;-78
2024/02/14 05:17:01;;;;;;;0.63;0.57;;;10.20;99.90;;;;;;4966305;28;20129;-77
2024/02/14 05:19:26;;;;;;;1.35;1.00;;;10.20;99.90;;;;;;4971772;28;20046;-76
2024/02/14 05:21:52;;;;;;;0.98;0.70;;;10.20;99.90;;;;;;4969749;28;20073;-75
2024/02/14 05:24:18;;;;;;;0.82;0.60;;;10.30;99.90;;;;;;4970893;28;20100;-75
2024/02/14 05:26:44;;;;;;;0.65;0.55;;;10.30;99.90;;;;;;4962641;28;20118;-76
2024/02/14 05:29:10;;;;;;;0.50;0.40;;;10.20;99.90;;;;;;4958177;28;20039;-76
2024/02/14 05:31:46;;;;;;;1.13;0.60;;;10.20;99.90;;;;;;4957986;28;20118;-76
2024/02/14 05:34:12;;;;;;;0.43;0.43;;;10.30;99.90;;;;;;4967158;28;20057;-76
2024/02/14 05:36:38;;;;;;;0.80;0.50;;;10.30;99.90;;;;;;4966403;28;20038;-76
2024/02/14 05:39:07;;;;;;;0.50;0.50;;;10.30;99.90;;;;;;4959831;28;20051;-76
2024/02/14 05:41:34;;;;;;;0.82;0.55;;;10.30;99.90;;;;;;4967738;28;20038;-78
2024/02/14 05:44:00;;;;;;;0.80;0.30;;;10.30;99.90;;;;;;4961752;28;20050;-77
2024/02/14 05:46:26;;;;;;;0.68;0.60;;;10.30;99.90;;;;;;4949904;28;20046;-77
2024/02/14 05:48:55;;;;;;;0.30;0.30;;;10.40;99.90;;;;;;4963792;28;20064;-76
2024/02/14 05:51:21;;;;;;;0.35;0.22;;;10.40;99.90;;;;;;4962643;28;20061;-76
2024/02/14 05:53:46;;;;;;;0.52;0.38;;;10.40;99.90;;;;;;4969332;28;20034;-76
2024/02/14 05:56:12;;;;;;;0.50;0.45;;;10.40;99.90;;;;;;4948482;28;20039;-77
2024/02/14 05:58:38;;;;;;;0.45;0.30;;;10.40;99.90;;;;;;4947380;28;20051;-77
2024/02/14 06:01:03;;;;;;;2.55;0.70;;;10.50;99.90;;;;;;4965418;28;20042;-77
2024/02/14 06:03:29;;;;;;;1.15;0.30;;;10.50;99.90;;;;;;4967520;28;20042;-76
2024/02/14 06:05:55;;;;;;;0.52;0.43;;;10.50;99.90;;;;;;4969307;28;20043;-79
2024/02/14 06:08:23;;;;;;;0.22;0.22;;;10.50;99.90;;;;;;4968811;28;20054;-77
2024/02/14 06:10:49;;;;;;;0.43;0.40;;;10.60;99.90;;;;;;4965469;28;20046;-77
2024/02/14 06:13:15;;;;;;;0.45;0.30;;;10.60;99.90;;;;;;4971150;28;20038;-76
2024/02/14 06:15:41;;;;;;;1.08;0.82;;;10.60;99.90;;;;;;4966561;28;20391;-75
2024/02/14 06:18:07;;;;;;;1.25;0.45;;;10.60;99.90;;;;;;4968639;28;20031;-76
2024/02/14 06:20:32;;;;;;;4.88;0.85;;;10.60;99.90;;;;;;4968168;28;20065;-72
2024/02/14 06:22:58;;;;;;;0.50;0.40;;;10.60;99.90;;;;;;4948773;28;20049;-72
2024/02/14 06:25:24;;;;;;;0.30;0.30;;;10.60;99.90;;;;;;4959313;28;20101;-73
2024/02/14 06:27:50;;;;;;;0.70;0.50;;;10.70;99.90;;;;;;4958037;28;20773;-72
2024/02/14 06:30:16;;;;;;;3.78;0.60;;;10.70;99.90;;;;;;4968325;28;20047;-73
2024/02/14 06:32:43;;;;;;;0.77;0.70;;;10.70;99.90;;;;;;4958692;28;20047;-73
2024/02/14 06:35:08;;;;;;;0.45;0.40;;;10.70;99.90;;;;;;4970463;28;20085;-73
2024/02/14 06:37:34;;;;;;;0.73;0.50;;;10.70;99.90;;;;;;4964389;28;20137;-73
2024/02/14 06:40:00;;;;;;;0.95;0.60;;;10.70;99.90;;;;;;4972148;28;20081;-73
2024/02/14 06:42:26;;;;;;;1.33;0.70;;;10.70;99.90;;;;;;4968885;28;20078;-74
2024/02/14 06:44:52;;;;;;;7.65;1.23;;;10.80;99.90;;;;;;4966113;28;20114;-73
2024/02/14 06:47:18;;;;;;;1.60;1.02;;;10.80;99.90;;;;;;4972189;28;20557;-73
2024/02/14 06:49:44;;;;;;;2.25;0.70;;;10.80;99.90;;;;;;4970837;28;20038;-74
2024/02/14 06:52:09;;;;;;;8.95;1.00;;;10.80;99.90;;;;;;4963772;28;20031;-74
2024/02/14 06:54:35;;;;;;;3.28;0.90;;;10.80;99.90;;;;;;4969892;28;20082;-73
2024/02/14 06:57:01;;;;;;;1.63;0.82;;;10.80;99.90;;;;;;4948648;28;20158;-73
2024/02/14 06:59:26;;;;;;;5.47;0.82;;;10.90;99.90;;;;;;4970104;28;20042;-73
2024/02/14 07:01:54;;;;;;;2.03;0.82;;;10.90;99.90;;;;;;4948461;28;20054;-74
2024/02/14 07:04:25;;;;;;;1.48;0.95;;;10.90;99.90;;;;;;4952606;28;20767;-74
2024/02/14 07:06:54;;;;;;;1.05;0.70;;;10.90;99.90;;;;;;4966682;28;20105;-74
2024/02/14 07:09:19;;;;;;;3.85;1.17;;;10.90;99.90;;;;;;4963812;28;20043;-74
2024/02/14 07:11:45;;;;;;;0.82;0.50;;;10.90;99.90;;;;;;4960997;28;20056;-74
2024/02/14 07:14:11;;;;;;;1.42;0.95;;;11.00;99.90;;;;;;4947771;28;20238;-74
2024/02/14 07:16:37;;;;;;;0.90;0.57;;;11.00;99.90;;;;;;4976052;28;20049;-75
2024/02/14 07:19:03;;;;;;;1.48;0.73;;;11.00;99.90;;;;;;4956388;28;20047;-75
2024/02/14 07:21:29;;;;;;;1.95;0.85;;;11.00;99.90;;;;;;4974345;28;20047;-75
2024/02/14 07:23:55;;;;;;;1.50;0.73;;;11.00;99.90;;;;;;4966435;28;20368;-75
2024/02/14 07:26:20;;;;;;;0.65;0.55;;;11.00;99.90;;;;;;4952472;28;20055;-75
2024/02/14 07:28:46;;;;;;;1.83;0.95;;;11.00;99.90;;;;;;4967410;28;20066;-75
2024/02/14 07:31:12;;;;;;;1.35;0.90;;;11.00;99.90;;;;;;4969257;28;20053;-76
2024/02/14 07:33:37;;;;;;;1.08;0.88;;;11.00;99.90;;;;;;4970541;28;20474;-74
2024/02/14 07:36:03;;;;;;;1.25;0.93;;;11.10;99.90;;;;;;4966824;28;20134;-75
2024/02/14 07:38:29;;;;;;;1.65;0.65;;;11.00;99.90;;;;;;4952052;28;20079;-73
2024/02/14 07:40:55;;;;;;;2.17;0.80;;;11.10;99.90;;;;;;4964538;28;20086;-75
2024/02/14 07:43:21;;;;;;;2.63;1.05;;;11.10;99.90;;;;;;4970536;28;20120;-75
2024/02/14 07:45:47;;;;;;;1.00;0.82;;;11.10;99.90;;;;;;4966330;28;20056;-74
2024/02/14 07:48:13;;;;;;;1.48;0.65;;;11.10;99.90;;;;;;4969792;28;20059;-74
2024/02/14 07:50:39;;;;;;;2.35;0.93;;;11.10;99.90;;;;;;4955958;28;20162;-74
2024/02/14 07:53:06;;;;;;;1.52;0.90;;;11.10;99.90;;;;;;4953755;28;20430;-74
2024/02/14 07:55:32;;;;;;;2.35;1.27;;;11.10;99.90;;;;;;4970913;28;20093;-73
2024/02/14 07:57:59;;;;;;;2.42;1.15;;;11.10;99.90;;;;;;4974454;28;20548;-74
2024/02/14 08:00:25;;;;;;;0.98;0.50;;;11.10;99.90;;;;;;4965255;28;20046;-74
2024/02/14 08:02:51;;;;;;;1.13;0.65;;;11.20;99.90;;;;;;4944478;28;20101;-74
2024/02/14 08:05:17;;;;;;;2.33;1.30;;;11.20;99.90;;;;;;4964491;28;20046;-74
2024/02/14 08:07:44;;;;;;;5.80;1.05;;;11.20;99.90;;;;;;4954735;28;20065;-74
2024/02/14 08:10:10;;;;;;;4.68;1.30;;;11.20;99.90;;;;;;4951405;28;20121;-75
2024/02/14 08:12:38;;;;;;;2.08;1.42;;;11.30;99.90;;;;;;4970302;28;20112;-74
2024/02/14 08:15:06;;;;;;;2.28;1.27;;;11.30;99.90;;;;;;4960446;28;20121;-76
2024/02/14 08:17:33;;;;;;;3.53;2.10;;;11.30;99.90;;;;;;4968137;28;20049;-76
2024/02/14 08:19:59;;;;;;;3.17;1.65;;;11.40;99.90;;;;;;4968870;28;20592;-74
2024/02/14 08:22:26;;;;;;;2.60;1.88;;;11.40;99.90;;;;;;4951722;28;20042;-75
2024/02/14 08:24:52;;;;;;;7.90;2.20;;;11.40;99.90;;;;;;4968643;28;20045;-74
2024/02/14 08:27:18;;;;;;;3.00;2.17;;;11.40;99.90;;;;;;4965551;28;20050;-74
2024/02/14 08:29:44;;;;;;;3.80;1.52;;;11.40;99.90;;;;;;4970349;28;20467;-75
2024/02/14 08:32:09;;;;;;;3.88;1.73;;;11.40;99.90;;;;;;4965332;28;20034;-74
2024/02/14 08:34:35;;;;;;;3.30;2.67;;;11.40;99.90;;;;;;4968710;28;20045;-74
2024/02/14 08:37:01;;;;;;;4.00;2.40;;;11.40;99.90;;;;;;4963263;28;20039;-74
2024/02/14 08:39:26;;;;;;;5.40;3.70;;;11.40;99.90;;;;;;4955739;28;20059;-74
2024/02/14 08:41:52;;;;;;;3.42;2.63;;;11.40;99.90;;;;;;4970226;28;20046;-74
2024/02/14 08:44:18;;;;;;;3.40;2.35;;;11.40;99.90;;;;;;4966107;28;20046;-74
2024/02/14 08:46:48;;;;;;;4.32;3.05;;;11.40;99.90;;;;;;4967419;28;20057;-73
2024/02/14 08:49:14;;;;;;;4.50;2.78;;;11.50;99.90;;;;;;4968121;28;20116;-74
2024/02/14 08:51:45;;;;;;;4.38;2.90;;;11.50;99.90;;;;;;4957952;28;20042;-74
2024/02/14 08:54:11;;;;;;;4.03;2.97;;;11.50;99.90;;;;;;4966205;28;20509;-74
2024/02/14 08:56:37;;;;;;;6.03;3.03;;;11.50;99.90;;;;;;4964979;28;20486;-74
2024/02/14 08:59:05;;;;;;;4.97;3.30;;;11.50;99.90;;;;;;4971734;28;20052;-73
2024/02/14 09:01:31;;;;;;;6.78;2.40;;;11.50;99.90;;;;;;4967143;28;20047;-74
2024/02/14 09:03:58;;;;;;;7.65;3.40;;;11.50;99.90;;;;;;4962239;28;20042;-74
2024/02/14 09:06:26;;;;;;;5.80;3.60;;;11.40;99.90;;;;;;4959781;28;20039;-74
2024/02/14 09:08:53;;;;;;;6.15;3.33;;;11.50;99.90;;;;;;4960038;28;20045;-74
2024/02/14 09:11:19;;;;;;;4.63;2.88;;;11.40;99.90;;;;;;4959496;28;20143;-74
2024/02/14 09:13:47;;;;;;;5.55;2.95;;;11.50;99.90;;;;;;4963510;28;20458;-73
2024/02/14 09:16:15;;;;;;;4.93;3.08;;;11.50;99.90;;;;;;4966969;28;20050;-74
2024/02/14 09:18:41;;;;;;;6.05;3.60;;;11.50;99.90;;;;;;4960640;28;20054;-74
2024/02/14 09:21:07;;;;;;;5.13;2.97;;;11.50;99.90;;;;;;4967389;28;20490;-73
2024/02/14 09:23:32;;;;;;;4.63;3.42;;;11.50;99.90;;;;;;4946114;28;20089;-73
2024/02/14 09:25:59;;;;;;;13.32;2.63;;;11.50;99.90;;;;;;4971822;28;20050;-73
2024/02/14 09:28:27;;;;;;;6.50;3.08;;;11.50;99.90;;;;;;4961129;28;20100;-74
2024/02/14 09:30:54;;;;;;;7.43;3.75;;;11.60;99.90;;;;;;4951643;28;20125;-73
2024/02/14 09:33:20;;;;;;;5.93;3.60;;;11.50;99.90;;;;;;4960761;28;20462;-73
2024/02/14 09:35:47;;;;;;;4.32;3.05;;;11.60;99.90;;;;;;4964356;28;20042;-73
2024/02/14 09:38:13;;;;;;;6.75;2.42;;;11.60;99.90;;;;;;4962822;28;20058;-73
2024/02/14 09:40:42;;;;;;;4.47;2.83;;;11.60;99.90;;;;;;4985908;28;20107;-74
2024/02/14 09:43:35;;;;;;;4.80;3.08;;;11.60;99.90;;;;;;4972445;28;20088;-74
2024/02/14 09:46:02;;;;;;;3.67;2.58;;;11.70;99.90;;;;;;4970171;28;20038;-74
2024/02/14 09:48:30;;;;;;;4.68;2.50;;;11.70;99.90;;;;;;4963365;28;20121;-73
2024/02/14 09:50:57;;;;;;;5.60;1.92;;;11.70;99.90;;;;;;4969050;28;20039;-74
2024/02/14 09:53:23;;;;;;;3.53;1.73;;;11.80;99.90;;;;;;4959664;28;20039;-76
2024/02/14 09:55:50;;;;;;;2.70;1.73;;;11.80;99.90;;;;;;4965109;28;20038;-74
2024/02/14 09:58:17;;;;;;;3.92;2.75;;;11.80;99.90;;;;;;4965769;28;20046;-75
2024/02/14 10:00:43;;;;;;;5.97;2.60;;;11.80;99.90;;;;;;4961597;28;20038;-75
2024/02/14 10:03:09;;;;;;;5.30;2.75;;;11.80;99.90;;;;;;4957329;28;20030;-74
2024/02/14 10:05:35;;;;;;;4.70;2.92;;;11.90;99.90;;;;;;4959482;28;20503;-74
2024/02/14 10:08:01;;;;;;;6.32;3.72;;;11.90;99.90;;;;;;4956836;28;20099;-74
2024/02/14 10:10:27;;;;;;;5.18;3.13;;;11.90;99.90;;;;;;4964193;28;20039;-75
2024/02/14 10:12:56;;;;;;;4.80;2.83;;;11.90;99.90;;;;;;4970939;28;20071;-75
2024/02/14 10:15:23;;;;;;;9.23;3.95;;;11.90;99.90;;;;;;4966041;28;20482;-75
2024/02/14 10:17:48;;;;;;;6.07;3.40;;;11.90;99.90;;;;;;4964665;28;20043;-75
2024/02/14 10:20:17;;;;;;;5.82;2.67;;;11.90;99.90;;;;;;4968277;28;20495;-75
2024/02/14 10:22:44;;;;;;;5.93;3.42;;;11.90;99.90;;;;;;4957978;28;20549;-75
2024/02/14 10:25:10;;;;;;;5.40;2.78;;;12.00;99.90;;;;;;4964105;28;20073;-76
2024/02/14 10:27:38;;;;;;;7.93;3.53;;;12.00;99.90;;;;;;4963723;28;20038;-75
2024/02/14 10:30:09;;;;;;;5.43;3.00;;;12.00;99.90;;;;;;4961504;28;20038;-75
2024/02/14 10:32:38;;;;;;;4.03;2.35;;;12.10;99.90;;;;;;4959045;28;20411;-75
2024/02/14 10:35:08;;;;;;;5.22;2.85;;;12.10;99.90;;;;;;4967400;28;20419;-75
2024/02/14 10:37:36;;;;;;;3.10;2.15;;;12.00;99.90;;;;;;4966740;28;20053;-76
2024/02/14 10:40:03;;;;;;;4.53;2.88;;;12.10;99.90;;;;;;4974010;28;20047;-75
2024/02/14 10:42:30;;;;;;;3.83;1.95;;;12.10;99.90;;;;;;4967081;28;20053;-75
2024/02/14 10:44:56;;;;;;;4.57;2.80;;;12.20;99.90;;;;;;4962966;28;20046;-74
2024/02/14 10:47:29;;;;;;;4.78;2.65;;;12.20;99.90;;;;;;4950664;28;20092;-75
2024/02/14 10:49:57;;;;;;;3.63;2.53;;;12.30;99.90;;;;;;4969977;28;20084;-74
2024/02/14 10:52:24;;;;;;;2.88;1.80;;;12.40;99.90;;;;;;4959238;28;20447;-74
2024/02/14 10:54:56;;;;;;;6.72;2.80;;;12.40;99.90;;;;;;4968478;28;20031;-74
2024/02/14 10:57:25;;;;;;;4.05;2.88;;;12.30;99.90;;;;;;4962723;28;20054;-74
2024/02/14 10:59:52;;;;;;;7.22;3.30;;;12.30;99.90;;;;;;4975664;28;20042;-75
2024/02/14 11:02:20;;;;;;;5.82;3.35;;;12.40;99.90;;;;;;4965737;28;20047;-75
2024/02/14 11:04:46;;;;;;;6.68;2.97;;;12.30;99.90;;;;;;4973412;28;20098;-75
2024/02/14 11:07:13;;;;;;;4.22;2.63;;;12.30;99.90;;;;;;4967989;28;20052;-75
2024/02/14 11:09:40;;;;;;;5.80;3.95;;;12.30;99.90;;;;;;4974555;28;20584;-74
2024/02/14 11:12:10;;;;;;;6.97;3.75;;;12.40;99.90;;;;;;4968344;28;20078;-75
2024/02/14 11:14:38;;;;;;;4.72;2.75;;;12.40;99.90;;;;;;4967845;28;20042;-74
2024/02/14 11:17:09;;;;;;;5.18;3.15;;;12.30;99.90;;;;;;4954289;28;20467;-74
2024/02/14 11:19:38;;;;;;;4.45;2.65;;;12.40;99.90;;;;;;4971393;28;20050;-75
2024/02/14 11:22:18;;;;;;;5.63;2.83;;;12.40;99.90;;;;;;4971606;28;20084;-74
2024/02/14 11:24:46;;;;;;;2.85;2.28;;;12.50;99.90;;;;;;4971462;28;20043;-74
2024/02/14 11:27:12;;;;;;;4.22;2.72;;;12.50;99.90;;;;;;4966287;28;20046;-74
2024/02/14 11:29:50;;;;;;;3.95;3.00;;;12.50;99.90;;;;;;4971924;28;20374;-75
2024/02/14 11:32:17;;;;;;;3.53;2.08;;;12.50;99.90;;;;;;4966537;28;20043;-75
2024/02/14 11:34:52;;;;;;;4.88;2.50;;;12.50;99.90;;;;;;4969838;28;20041;-74
2024/02/14 11:37:27;;;;;;;2.70;1.73;;;12.50;99.90;;;;;;4965786;28;20046;-74
2024/02/14 11:39:53;;;;;;;3.25;2.22;;;12.50;99.90;;;;;;4967230;28;20509;-74
2024/02/14 11:42:21;;;;;;;3.03;1.38;;;12.50;99.90;;;;;;4973737;28;20034;-75
2024/02/14 11:44:47;;;;;;;2.55;1.60;;;12.60;99.90;;;;;;4965593;28;20050;-74
2024/02/14 11:47:13;;;;;;;2.67;1.75;;;12.60;99.90;;;;;;4965718;28;20042;-74
2024/02/14 11:49:39;;;;;;;2.70;1.80;;;12.60;99.90;;;;;;4967225;28;20100;-74
2024/02/14 11:52:09;;;;;;;2.40;1.80;;;12.60;99.90;;;;;;4970024;28;20047;-75
2024/02/14 11:54:35;;;;;;;2.38;1.60;;;12.50;99.90;;;;;;4966457;28;20046;-74
2024/02/14 11:57:00;;;;;;;10.70;2.67;;;12.60;99.90;;;;;;4966948;28;20414;-74
2024/02/14 11:59:26;;;;;;;2.42;1.30;;;12.60;99.90;;;;;;4963142;28;20043;-75
2024/02/14 12:01:54;;;;;;;2.78;2.03;;;12.70;99.90;;;;;;4967623;28;20517;-75
2024/02/14 12:04:20;;;;;;;2.17;1.60;;;12.70;99.90;;;;;;4966252;28;20047;-74
2024/02/14 12:06:46;;;;;;;2.30;1.90;;;12.70;99.90;;;;;;4973044;28;20057;-75
2024/02/14 12:09:12;;;;;;;3.05;1.63;;;12.70;99.90;;;;;;4945976;28;20039;-74
2024/02/14 12:11:44;;;;;;;2.97;1.58;;;12.80;99.90;;;;;;4966701;28;20105;-75
2024/02/14 12:14:11;;;;;;;1.95;1.08;;;12.80;99.90;;;;;;4964406;28;20121;-74
2024/02/14 12:16:39;;;;;;;7.80;1.75;;;12.80;99.90;;;;;;4970753;28;20062;-75
2024/02/14 12:19:09;;;;;;;2.35;1.50;;;12.90;99.90;;;;;;4962391;28;20057;-75
2024/02/14 12:21:36;;;;;;;1.20;0.95;;;12.90;99.90;;;;;;4973790;28;20046;-75
2024/02/14 12:24:03;;;;;;;2.05;1.30;;;12.90;99.90;;;;;;4965693;28;20109;-75
2024/02/14 12:26:31;;;;;;;1.38;0.93;;;12.90;99.90;;;;;;4951205;28;20132;-75
2024/02/14 12:28:56;;;;;;;2.05;1.63;;;12.90;99.90;;;;;;4965532;28;20173;-75
2024/02/14 12:31:23;;;;;;;2.35;1.50;;;12.90;99.90;;;;;;4950994;28;20125;-75
2024/02/14 12:33:49;;;;;;;1.60;1.25;;;12.80;99.90;;;;;;4948528;28;20062;-75
2024/02/14 12:36:15;;;;;;;3.65;2.20;;;12.90;99.90;;;;;;4971792;28;20703;-73
2024/02/14 12:38:41;;;;;;;2.92;1.95;;;12.90;99.90;;;;;;4963723;28;20062;-74
2024/02/14 12:41:06;;;;;;;2.72;1.35;;;12.90;99.90;;;;;;4961888;28;20042;-75
2024/02/14 12:43:32;;;;;;;3.22;1.67;;;12.80;99.90;;;;;;4964848;28;20133;-75
2024/02/14 12:45:58;;;;;;;4.13;1.92;;;12.80;99.90;;;;;;4966792;28;20253;-74
2024/02/14 12:48:26;;;;;;;3.30;2.42;;;12.80;99.90;;;;;;4966361;28;20125;-75